x

Susquehanna, Md (44057) Weather Station

11:50pm - Sun 28th Aug 2016 All times are EDT. -4 hours from GMT.

  • Wind
    7mph, 9mph gusts
  • Air Temp 78°f
  • Sea Pressure 1022.8mb
  • Susquehanna, Md
  • Susquehanna, Md

More Historic Weather Station data

Upgrade to MSW Pro to gain access to the past 30 days of data for over 8000 Wavebouys and Weather Stations around the globe.

Join Pro

Comparision Forecast

View Surf forecast
   
Sun 08/28 11:50pm 7 9 mph 1022.8mb - 78f
11:40pm 7 9 mph 1022.9mb - 78f
11:30pm 7 11 mph 1022.9mb - 79f
11:20pm 9 11 mph 1022.9mb - 79f
11:10pm 9 13 mph 1023mb - 80f
11:00pm 11 13 mph 1023mb 85f 80f
10:40pm 13 18 mph 1022.6mb - 80f
10:30pm 13 16 mph 1022.3mb - 80f
10:20pm 16 18 mph 1022.1mb - 80f
10:10pm 13 16 mph 1021.8mb - 81f
10:00pm 16 18 mph 1021.6mb 85f 81f
9:50pm 16 18 mph 1021.6mb - 81f
9:40pm 13 16 mph 1021.5mb - 82f
9:30pm 13 16 mph 1021.5mb - 82f
9:20pm 13 16 mph 1021.4mb - 82f
9:10pm 13 16 mph 1021.4mb - 82f
9:00pm 13 16 mph 1021.5mb 86f 82f
8:50pm 13 16 mph 1021.5mb - 83f
8:40pm 13 16 mph 1021.3mb - 83f
8:30pm 11 13 mph 1021.3mb - 83f
8:20pm 11 13 mph 1021.3mb - 83f
8:10pm 11
mph
1021.3mb - 84f
8:00pm 9 11 mph 1021.3mb 86f 84f
7:50pm 9 11 mph 1021.1mb - 84f
7:40pm 9 11 mph 1021.1mb - 84f
7:30pm 11 13 mph 1021mb - 84f
7:20pm 11 13 mph 1021.1mb - 85f
7:10pm 9 11 mph 1021.1mb - 85f
7:00pm 7 9 mph 1021.3mb 87f 85f
6:50pm 7 11 mph 1021.4mb - 85f
6:40pm 7 9 mph 1021.5mb - 85f
6:30pm 7 9 mph 1021.4mb - 85f
6:20pm 9 11 mph 1021.5mb - 85f
6:10pm 9 11 mph 1021.7mb - 85f
6:00pm 9 11 mph 1021.8mb 88f 85f
5:50pm 9 11 mph 1021.8mb - 85f
5:40pm 7 11 mph 1021.9mb - 85f
5:30pm 7 11 mph 1022mb - 85f
5:20pm 7 11 mph 1021.9mb - 85f
5:10pm 4 9 mph 1021.8mb - 85f
5:00pm 2 4 mph 1021.9mb 88f 85f
4:50pm 4 7 mph 1021.9mb - 85f
4:40pm 4 7 mph 1022mb - 85f
4:30pm 2 4 mph 1022.1mb - 85f
4:20pm 4 7 mph 1022.3mb - 85f
4:10pm 4 7 mph 1022.4mb - 85f
4:00pm 7 9 mph 1022.6mb 88f 85f
3:50pm 2 7 mph 1022.7mb - 85f
3:40pm 2 4 mph 1022.9mb - 85f
3:30pm 4 7 mph 1023.1mb - 85f
3:20pm 4
mph
1023.2mb - 85f
3:10pm 4 7 mph 1023.4mb - 84f
3:00pm 4 7 mph 1023.6mb 87f 84f
2:50pm 4 7 mph 1023.8mb - 84f
2:40pm 2 4 mph 1023.9mb - 84f
2:30pm  -  2 mph 1024mb - 83f
2:10pm 2 4 mph 1024.2mb - 83f
2:00pm 2 4 mph 1024.2mb 87f 82f
1:50pm 2 4 mph 1024.2mb - 83f
1:40pm 2 4 mph 1024.3mb - 82f
1:30pm 2 4 mph 1024.3mb - 82f
1:20pm 2 4 mph 1024.3mb - 82f
1:10pm 2 4 mph 1024.4mb - 82f
1:00pm 2 4 mph 1024.4mb 87f 81f
12:50pm 2 4 mph 1024.5mb - 81f
12:40pm 2 4 mph 1024.5mb - 81f
12:30pm 2 4 mph 1024.7mb - 80f
12:20pm 2 4 mph 1024.8mb - 81f
12:10pm 2 4 mph 1024.8mb - 81f
12:00pm 2 4 mph 1024.8mb 86f 81f
11:50am 2 4 mph 1024.9mb - 80f
11:40am 2 7 mph 1024.9mb - 80f
11:30am 2 4 mph 1025mb - 79f
11:20am 2 4 mph 1025mb - 79f
11:10am 2
mph
1025mb - 80f
11:00am 2 4 mph 1025mb 86f 80f
10:40am 2
mph
1025mb - 79f
10:30am 2 4 mph 1025mb - 78f
10:20am 2 4 mph 1025mb - 78f
10:10am 2 4 mph 1024.9mb - 78f
10:00am 2 4 mph 1025mb 85f 77f
9:50am 2 4 mph 1025mb - 77f
9:40am 4 7 mph 1025mb - 76f
9:30am 4 7 mph 1025.1mb - 76f
9:20am 4 7 mph 1025.1mb - 76f
9:10am 4 7 mph 1025.1mb - 76f
9:00am 4 7 mph 1025.1mb 85f 76f
8:50am 4 7 mph 1025mb - 75f
8:40am 4 7 mph 1024.9mb - 75f
8:30am 7 9 mph 1025mb - 75f
8:20am 4 9 mph 1025mb - 75f
8:10am 4 7 mph 1025mb - 74f
8:00am 4 7 mph 1025mb 84f 74f
7:50am 4 7 mph 1024.9mb - 74f
7:40am 4 7 mph 1024.7mb - 74f
7:30am 4 7 mph 1024.7mb - 74f
7:20am 7 9 mph 1024.7mb - 74f
7:10am 7 9 mph 1024.7mb - 73f
7:00am 7 9 mph 1024.5mb 84f 73f
6:50am 7 9 mph 1024.5mb - 73f
6:40am 7
mph
1024.4mb - 72f
6:30am 7 9 mph 1024.1mb - 72f
6:20am 7 9 mph 1024mb - 72f
6:10am 7 9 mph 1023.9mb - 73f
6:00am 7 9 mph 1023.7mb 84f 73f
5:50am 7 9 mph 1023.6mb - 73f
5:40am 4 7 mph 1023.5mb - 73f
5:30am 4 7 mph 1023.5mb - 73f
5:20am 4 7 mph 1023.5mb - 73f
5:10am 4 7 mph 1023.4mb - 73f
5:00am 4 7 mph 1023.3mb 85f 73f
4:50am 4
mph
1023.3mb - 73f
4:40am 4
mph
1023.2mb - 73f
4:30am 4 7 mph 1023.2mb - 73f
4:20am 7
mph
1023mb - 73f
4:10am 7 9 mph 1022.9mb - 73f
4:00am 7
mph
1023mb 84f 73f
3:50am 7
mph
1023mb - 73f
3:40am 7
mph
1023mb - 73f
3:30am 7 9 mph 1023mb - 73f
3:20am 7 9 mph 1023.1mb - 74f
3:10am 4 7 mph 1023.1mb - 74f
3:00am 4 7 mph 1023mb 85f 74f
2:50am 4 7 mph 1023mb - 74f
2:40am 4 7 mph 1023mb - 74f
2:30am 4 7 mph 1023mb - 74f
2:20am 4 7 mph 1022.9mb - 75f
2:10am 7
mph
1022.9mb - 75f
2:00am 7
mph
1023.1mb 85f 75f
1:50am 7
mph
1023.1mb - 76f
1:40am 7
mph
1023.1mb - 76f
1:30am 7 9 mph 1023.1mb - 77f
1:20am 7 9 mph 1023.1mb - 77f
1:10am 7 9 mph 1023.2mb - 78f
1:00am 9 11 mph 1023.3mb 85f 78f
12:50am 9 11 mph 1023.3mb - 78f
12:40am 9 11 mph 1023.3mb - 78f
12:30am 9 11 mph 1023.3mb - 79f
12:20am 7 11 mph 1023.3mb - 79f
12:10am 9 11 mph 1023.4mb - 79f
12:00am 7 9 mph 1023.5mb 85f 79f
Sat 08/27 11:50pm 7 9 mph 1023.5mb - 79f
11:40pm 7 9 mph 1023.4mb - 79f
11:30pm 9 11 mph 1023.4mb - 79f
11:20pm 9 13 mph 1023.5mb - 79f
11:10pm 11 13 mph 1023.5mb - 80f
11:00pm 11 13 mph 1023.4mb 86f 80f
10:50pm 9 13 mph 1023.4mb - 80f
10:40pm 9 13 mph 1023.4mb - 80f
10:30pm 11 13 mph 1023.3mb - 80f
10:20pm 11 13 mph 1023.1mb - 81f
10:10pm 11 13 mph 1022.9mb - 82f
10:00pm 11 13 mph 1022.7mb 86f 82f
9:50pm 11
mph
1022.6mb - 82f
9:40pm 11 13 mph 1022.6mb - 82f
9:30pm 9 13 mph 1022.5mb - 82f
9:20pm 7 9 mph 1022.4mb - 82f
9:10pm 2 4 mph 1022.3mb - 82f
9:00pm 2 4 mph 1022.1mb 86f 82f
8:50pm 4
mph
1021.8mb - 82f
8:40pm 4
mph
1021.7mb - 83f
8:30pm 4
mph
1021.6mb - 84f
8:20pm 2 4 mph 1021.5mb - 84f
8:10pm 4
mph
1021.4mb - 85f
8:00pm 2 4 mph 1021.3mb 86f 86f
7:50pm 2
mph
1021.2mb - 87f
7:40pm 2
mph
1021.1mb - 87f
7:30pm 2
mph
1021mb - 88f
7:20pm 2
mph
1020.9mb - 88f
7:10pm 2
mph
1020.9mb - 88f
7:00pm 2 4 mph 1020.8mb 86f 88f
6:50pm 2 4 mph 1020.8mb - 88f
6:40pm 4
mph
1020.8mb - 88f
6:30pm 4
mph
1020.7mb - 88f
6:20pm 4
mph
1020.7mb - 88f
6:10pm 4
mph
1020.8mb - 88f
6:00pm 2 4 mph 1020.7mb 86f 88f
5:50pm 4
mph
1020.8mb - 88f
5:40pm 4 7 mph 1020.9mb - 88f
5:30pm 4 7 mph 1020.9mb - 88f
5:20pm 4 7 mph 1020.9mb - 88f
5:10pm 4 7 mph 1020.9mb - 88f
5:00pm 4 7 mph 1020.9mb 87f 88f
4:50pm 4 7 mph 1020.9mb - 87f
4:40pm 4 7 mph 1021mb - 87f
4:30pm 4 7 mph 1021mb - 87f
4:20pm 4 7 mph 1021mb - 87f
4:10pm 4 7 mph 1021.1mb - 87f
4:00pm 4 7 mph 1021.1mb 87f 87f
3:50pm 7
mph
1021.3mb - 87f
3:40pm 7
mph
1021.4mb - 86f
3:30pm 7
mph
1021.4mb - 86f
3:20pm 7
mph
1021.5mb - 86f
3:10pm 4 7 mph 1021.5mb - 86f
3:00pm 7
mph
1021.6mb 87f 86f
2:50pm 4 7 mph 1021.7mb - 86f
2:40pm 4
mph
1021.8mb - 86f
2:30pm 4 7 mph 1021.8mb - 85f
2:20pm 4 7 mph 1021.8mb - 85f
2:10pm 4 7 mph 1021.9mb - 85f
2:00pm 7 9 mph 1021.9mb 86f 85f
1:50pm 7 9 mph 1022.1mb - 85f
1:40pm 7 9 mph 1022.1mb - 85f
1:30pm 9 11 mph 1022.2mb - 84f
1:20pm 7 9 mph 1022.1mb - 84f
1:10pm 7 9 mph 1022.1mb - 84f
1:00pm 7 9 mph 1022.2mb 86f 84f
12:50pm 7 9 mph 1022.2mb - 84f
12:40pm 7 9 mph 1022.2mb - 84f
12:30pm 7 9 mph 1022.2mb - 84f
12:20pm 7 11 mph 1022.3mb - 84f
12:10pm 7 9 mph 1022.3mb - 84f
12:00pm 7 9 mph 1022.4mb 85f 84f
11:50am 7 9 mph 1022.5mb - 84f
11:40am 7 9 mph 1022.4mb - 83f
11:30am 7 9 mph 1022.4mb - 83f
11:20am 7 9 mph 1022.4mb - 83f
11:10am 7 9 mph 1022.4mb - 83f
11:00am 7 11 mph 1022.4mb 85f 83f
10:50am 9 11 mph 1022.4mb - 83f
10:40am 9 13 mph 1022.4mb - 83f
10:30am 7 9 mph 1022.4mb - 83f
10:20am 7 11 mph 1022.4mb - 83f
10:10am 9 13 mph 1022.4mb - 82f
10:00am 9 11 mph 1022.3mb 85f 82f
9:50am 9 11 mph 1022.3mb - 82f
9:40am 7 11 mph 1022.2mb - 81f
9:30am 7 11 mph 1022.2mb - 81f
9:20am 7 9 mph 1022.2mb - 81f
9:10am 4 9 mph 1022.1mb - 80f
9:00am 2 4 mph 1022.1mb 84f 79f
8:50am 4 7 mph 1022.1mb - 79f
8:40am 4
mph
1022.1mb - 78f
8:30am 4 7 mph 1022.1mb - 78f
8:20am 4 7 mph 1022.2mb - 78f
8:10am 4 7 mph 1022.1mb - 77f
8:00am 7 9 mph 1022mb 84f 77f
7:50am 7 9 mph 1021.9mb - 77f
7:40am 7 9 mph 1021.8mb - 76f
7:30am 7 9 mph 1021.7mb - 76f
7:20am 7
mph
1021.7mb - 76f
7:10am 7 9 mph 1021.6mb - 76f
7:00am 7 9 mph 1021.5mb 84f 76f
6:50am 7 9 mph 1021.4mb - 75f
6:40am 7 9 mph 1021.3mb - 75f
6:30am 7 9 mph 1021.1mb - 75f
6:20am 7 9 mph 1020.9mb - 75f
6:10am 7 9 mph 1020.7mb - 75f
6:00am 7 9 mph 1020.6mb 84f 76f
5:50am 7 9 mph 1020.6mb - 76f
5:40am 7 9 mph 1020.5mb - 76f
5:30am 7 9 mph 1020.3mb - 76f
5:20am 7 9 mph 1020.3mb - 75f
5:10am 7
mph
1020.1mb - 75f
5:00am 7 9 mph 1020mb 84f 75f
4:50am 7
mph
1019.9mb - 76f
4:40am 7
mph
1019.9mb - 76f
4:30am 4 7 mph 1019.9mb - 76f
4:10am 7 9 mph 1019.6mb - 76f
4:00am 7 9 mph 1019.5mb 84f 76f
3:50am 7 9 mph 1019.5mb - 76f
3:40am 7
mph
1019.4mb - 76f
3:30am 7
mph
1019.5mb - 77f
3:20am 4 7 mph 1019.5mb - 77f
3:10am 4 7 mph 1019.4mb - 77f
3:00am 4 7 mph 1019.5mb 84f 77f
2:50am 4 7 mph 1019.4mb - 78f
2:40am 7
mph
1019.3mb - 78f
2:30am 4 7 mph 1019.3mb - 78f
2:20am 4 7 mph 1019.3mb - 78f
2:10am 2 4 mph 1019.3mb - 77f
2:00am 4 7 mph 1019.3mb 85f 78f
1:50am 4 7 mph 1019.4mb - 78f
1:40am 7 9 mph 1019.2mb - 78f
1:30am 7 9 mph 1019.1mb - 78f
1:20am 9 11 mph 1019.2mb - 78f
1:10am 9 11 mph 1019.3mb - 79f
1:00am 9 11 mph 1019.3mb 85f 79f
12:50am 9
mph
1019.3mb - 79f
12:40am 9 11 mph 1019.2mb - 79f
12:30am 9 11 mph 1019.1mb - 79f
12:20am 9 11 mph 1019.1mb - 80f
12:10am 9 11 mph 1019mb - 80f
12:00am 9 11 mph 1018.9mb 85f 80f
Fri 08/26 11:50pm 9
mph
1019mb - 80f
11:40pm 9
mph
1019mb - 80f
11:30pm 7 9 mph 1019mb - 81f
11:20pm 7 9 mph 1019mb - 81f
11:10pm 7 9 mph 1018.8mb - 81f
11:00pm 7
mph
1018.7mb 85f 81f
10:50pm 4 7 mph 1018.7mb - 81f
10:40pm 4
mph
1018.6mb - 81f
10:20pm 4 7 mph 1018.3mb - 81f
10:10pm 4 7 mph 1018.2mb - 82f
10:00pm 4 7 mph 1018.2mb 85f 82f
9:50pm 7
mph
1018.2mb - 83f
9:40pm 4 7 mph 1018.1mb - 83f
9:30pm 4 7 mph 1018mb - 83f
9:20pm 4 7 mph 1018mb - 83f
9:10pm 4 7 mph 1017.9mb - 84f
9:00pm 7
mph
1017.8mb 85f 84f
8:50pm 4 7 mph 1017.7mb - 84f
8:40pm 4 7 mph 1017.4mb - 85f
8:30pm 4
mph
1017.3mb - 85f
8:20pm 4 7 mph 1017.2mb - 85f
8:10pm 4
mph
1017.1mb - 86f
8:00pm 2
mph
1017mb 86f 87f
7:50pm 2 4 mph 1017mb - 88f
7:40pm 2 4 mph 1016.9mb - 88f
7:30pm 4 7 mph 1016.8mb - 89f
7:20pm 7
mph
1016.8mb - 89f
7:10pm 7
mph
1016.7mb - 90f
7:00pm 7
mph
1016.7mb 86f 90f
6:50pm 7 9 mph 1016.7mb - 91f
6:40pm 7 9 mph 1016.8mb - 91f
6:30pm 7 9 mph 1016.8mb - 91f
6:20pm 7 9 mph 1016.8mb - 90f
6:10pm 9
mph
1016.7mb - 90f
6:00pm 9
mph
1016.8mb 86f 90f
5:50pm 9 11 mph 1016.6mb - 90f
5:40pm 9 11 mph 1016.6mb - 90f
5:30pm 9 11 mph 1016.6mb - 90f
5:20pm 9 11 mph 1016.7mb - 90f
5:10pm 9 13 mph 1016.7mb - 90f
5:00pm 9 13 mph 1016.7mb 86f 90f
4:50pm 9 13 mph 1016.7mb - 90f
4:40pm 9 11 mph 1016.8mb - 90f
4:30pm 9 11 mph 1016.8mb - 90f
4:20pm 11 13 mph 1016.8mb - 90f
4:10pm 11 13 mph 1016.8mb - 90f
4:00pm 9 11 mph 1016.7mb 86f 89f
3:50pm 11 13 mph 1016.7mb - 89f
3:40pm 11 13 mph 1016.7mb - 89f
3:30pm 11 16 mph 1016.7mb - 90f
3:20pm 11 16 mph 1016.8mb - 89f
3:10pm 11 16 mph 1016.9mb - 90f
3:00pm 11 16 mph 1017mb 86f 89f
2:50pm 7 11 mph 1017.1mb - 89f
2:40pm 9 11 mph 1017.1mb - 89f
2:30pm 11 13 mph 1017.1mb - 89f
2:20pm 9 13 mph 1017.2mb - 88f
2:10pm 11 13 mph 1017.3mb - 88f
2:00pm 11 13 mph 1017.4mb 85f 88f
1:50pm 13 16 mph 1017.5mb - 88f
1:40pm 13 16 mph 1017.5mb - 88f
1:30pm 13 16 mph 1017.5mb - 88f
1:20pm 13 18 mph 1017.5mb - 88f
1:10pm 13 16 mph 1017.6mb - 87f
1:00pm 13 16 mph 1017.5mb 85f 88f
12:50pm 13 16 mph 1017.5mb - 87f
12:40pm 13 16 mph 1017.4mb - 87f
12:30pm 13 18 mph 1017.4mb - 87f
12:20pm 16 18 mph 1017.4mb - 87f
12:10pm 13 18 mph 1017.5mb - 87f
11:10am 11 13 mph 1017.4mb - 86f
11:00am 11 16 mph 1017.4mb 85f 86f
10:50am 11 13 mph 1017.4mb - 86f
10:40am 11 13 mph 1017.3mb - 86f
10:30am 9 11 mph 1017.3mb - 85f
10:20am 9 11 mph 1017.3mb - 85f
10:10am 7 9 mph 1017.4mb - 85f
10:00am 2 4 mph 1017.4mb 85f 85f
9:50am 2 4 mph 1017.4mb - 84f
9:40am 2 4 mph 1017.5mb - 83f
9:30am 2 4 mph 1017.5mb - 83f
9:20am 2 4 mph 1017.4mb - 82f
9:10am 2 4 mph 1017.3mb - 82f
9:00am 4 7 mph 1017.3mb 84f 81f
8:50am 4 7 mph 1017.2mb - 81f
8:40am 4
mph
1017.1mb - 81f
8:30am 4 7 mph 1017.2mb - 81f
8:20am 2 4 mph 1017.2mb - 81f
8:10am 2 4 mph 1017.3mb - 81f
8:00am 2 4 mph 1017.3mb 84f 81f
7:50am 2 4 mph 1017.3mb - 81f
7:40am 2
mph
1017.3mb - 80f
7:30am 2 4 mph 1017.2mb - 80f
7:20am 2 4 mph 1017.2mb - 80f
7:10am 2 4 mph 1017.3mb - 80f
7:00am 2 4 mph 1017.2mb 84f 80f
6:50am 2 4 mph 1017mb - 79f
6:40am 4
mph
1017mb - 79f
6:30am 4 7 mph 1017mb - 79f
6:20am 2 4 mph 1016.9mb - 79f
6:10am 2 4 mph 1016.8mb - 79f
6:00am 2 4 mph 1016.7mb 83f 78f
5:50am 2 4 mph 1016.5mb - 78f
5:40am 2 4 mph 1016.3mb - 79f
5:30am 2 4 mph 1016.2mb - 79f
5:20am 4 7 mph 1016.1mb - 78f
5:10am 4 7 mph 1016.1mb - 78f
5:00am 4 7 mph 1016mb 83f 78f
4:50am 4 7 mph 1016mb - 79f
4:40am 4 7 mph 1016mb - 79f
4:30am 4
mph
1016mb - 79f
4:20am 4
mph
1016mb - 79f
4:10am 4 7 mph 1015.9mb - 79f
4:00am 4 7 mph 1015.9mb 83f 79f
3:50am 7 9 mph 1015.9mb - 79f
3:40am 7 9 mph 1015.9mb - 79f
3:30am 4 7 mph 1015.9mb - 79f
3:20am 4 7 mph 1015.9mb - 79f
3:10am 4 7 mph 1016mb - 79f
3:00am 4 7 mph 1016.1mb 84f 79f
2:50am 4 7 mph 1016.2mb - 79f
2:40am 7 9 mph 1016.2mb - 79f
2:30am 7 9 mph 1016mb - 79f
2:20am 7 9 mph 1016mb - 79f
2:10am 7 9 mph 1015.9mb - 79f
2:00am 9
mph
1016mb 84f 79f
1:50am 9 11 mph 1016mb - 79f
1:40am 7 9 mph 1016.1mb - 79f
1:30am 9 11 mph 1016.2mb - 79f
1:20am 7 9 mph 1016.4mb - 79f
1:10am 7 9 mph 1016.4mb - 80f
1:00am 7 9 mph 1016.3mb 84f 80f
12:50am 7 9 mph 1016.4mb - 80f
12:40am 7 9 mph 1016.5mb - 80f
12:30am 4 9 mph 1016.6mb - 80f
12:20am 4 7 mph 1016.5mb - 80f
12:10am 4 7 mph 1016.7mb - 80f
12:00am 4
mph
1016.6mb 84f 80f
Thu 08/25 11:50pm 4 9 mph 1016.7mb - 80f
11:40pm 7 9 mph 1016.7mb - 80f
11:30pm 7 9 mph 1016.7mb - 80f
11:20pm 9 11 mph 1016.7mb - 80f
11:10pm 9 11 mph 1016.7mb - 81f
11:00pm 9
mph
1016.7mb 84f 81f
10:50pm 9 11 mph 1016.7mb - 81f
10:40pm 9 11 mph 1016.8mb - 81f
10:30pm 9 11 mph 1016.8mb - 81f
10:20pm 9 11 mph 1016.8mb - 81f
10:10pm 11
mph
1016.6mb - 81f
10:00pm 9 11 mph 1016.8mb 84f 81f
9:50pm 9 11 mph 1016.8mb - 82f
9:40pm 9 11 mph 1017mb - 82f
9:30pm 9 11 mph 1016.9mb - 82f
9:20pm 9 11 mph 1016.9mb - 82f
9:10pm 9 11 mph 1016.9mb - 82f
9:00pm 7 9 mph 1017mb 84f 82f
8:50pm 7 9 mph 1017mb - 82f
8:40pm 9 11 mph 1016.9mb - 83f
8:30pm 9 11 mph 1016.8mb - 83f
8:20pm 9 11 mph 1016.8mb - 83f
8:10pm 9 11 mph 1016.7mb - 83f
8:00pm 9 11 mph 1016.7mb 84f 83f
7:50pm 9 11 mph 1016.6mb - 83f
7:40pm 9 11 mph 1016.5mb - 83f
7:30pm 9
mph
1016.4mb - 84f
7:20pm 9 11 mph 1016.3mb - 84f
7:10pm 11
mph
1016.3mb - 84f
7:00pm 11 13 mph 1016.3mb 84f 84f
6:50pm 11 13 mph 1016.4mb - 84f
6:40pm 9 11 mph 1016.5mb - 85f
6:30pm 11 13 mph 1016.6mb - 85f
6:20pm 11 13 mph 1016.6mb - 85f
6:10pm 11 13 mph 1016.6mb - 84f
6:00pm 11 13 mph 1016.6mb 84f 84f
5:50pm 11 13 mph 1016.6mb - 84f
5:40pm 11 13 mph 1016.7mb - 84f
5:30pm 11 13 mph 1016.7mb - 84f
5:20pm 11 16 mph 1016.8mb - 84f
5:10pm 11 16 mph 1016.9mb - 84f
5:00pm 11 16 mph 1016.8mb 84f 84f
4:50pm 13 16 mph 1016.9mb - 84f
4:40pm 13 16 mph 1017mb - 84f
4:30pm 13 16 mph 1016.9mb - 84f
4:10pm 11 16 mph 1017.1mb - 83f
4:00pm 13 16 mph 1017.2mb 84f 83f
3:50pm 13 16 mph 1017.2mb - 83f
3:40pm 11 13 mph 1017.4mb - 83f
3:30pm 9 11 mph 1017.5mb - 83f
3:20pm 9 11 mph 1017.4mb - 82f
3:10pm 9 13 mph 1017.6mb - 82f
3:00pm 11 13 mph 1017.7mb 84f 82f
2:50pm 13 18 mph 1017.8mb - 82f
2:40pm 16 18 mph 1017.8mb - 82f
2:30pm 13 18 mph 1017.8mb - 82f
2:10pm 11 13 mph 1017.9mb - 82f
1:50pm 13 16 mph 1018.1mb - 82f
1:40pm 11 16 mph 1018.1mb - 82f
1:30pm 11 13 mph 1018.2mb - 81f
1:20pm 9 11 mph 1018.3mb - 81f
1:10pm 9 13 mph 1018.4mb - 81f
1:00pm 11 13 mph 1018.5mb 84f 81f
12:50pm 11 16 mph 1018.7mb - 81f
12:40pm 11 16 mph 1018.8mb - 81f
12:30pm 11 16 mph 1018.8mb - 81f
12:20pm 13 16 mph 1018.9mb - 80f
12:10pm 13 18 mph 1018.9mb - 80f
12:00pm 13 18 mph 1019mb 84f 80f
11:50am 13 18 mph 1019mb - 80f
11:40am 16 18 mph 1019.1mb - 80f
11:20am 16 20 mph 1019.3mb - 80f
11:10am 16 20 mph 1019.4mb - 80f
10:50am 16 20 mph 1019.4mb - 79f
10:40am 16 18 mph 1019.4mb - 79f
10:30am 13 18 mph 1019.5mb - 79f
10:20am 16 20 mph 1019.5mb - 79f
10:10am 13 18 mph 1019.6mb - 79f
10:00am 16 20 mph 1019.6mb 84f 79f
9:50am 13 20 mph 1019.8mb - 79f
9:40am 13 20 mph 1019.8mb - 78f
9:30am 13 20 mph 1019.7mb - 78f
9:20am 11 13 mph 1019.8mb - 77f
9:10am 9 11 mph 1019.7mb - 77f
9:00am 7 9 mph 1019.7mb 84f 76f
8:50am 7 9 mph 1019.9mb - 76f
8:40am 7 11 mph 1020mb - 76f
8:30am 9 11 mph 1020mb - 75f
8:20am 11 13 mph 1020.1mb - 75f
8:10am 11 13 mph 1020.2mb - 74f
8:00am 11 13 mph 1020.2mb 83f 74f
7:50am 11 13 mph 1020.3mb - 74f
7:40am 11 13 mph 1020.3mb - 74f
7:30am 11 13 mph 1020.4mb - 74f
7:20am 9 11 mph 1020.4mb - 73f
7:00am 11 13 mph 1020.4mb 83f 73f
6:50am 11 16 mph 1020.4mb - 73f
6:40am 11 13 mph 1020.3mb - 73f
6:30am 11 13 mph 1020.3mb - 73f
6:20am 11 13 mph 1020.3mb - 73f
6:10am 11 13 mph 1020.4mb - 74f
6:00am 11 13 mph 1020.2mb 83f 74f
5:50am 11 13 mph 1020.2mb - 74f
5:40am 11 13 mph 1020.3mb - 74f
5:30am 11 13 mph 1020.4mb - 74f
5:20am 11 13 mph 1020.3mb - 74f
5:10am 11 16 mph 1020.4mb - 74f
5:00am 11 13 mph 1020.4mb 83f 74f